createdAt,value
2023-04-22T00:00:10.376Z,77.46
2023-04-22T00:03:02.075Z,77.66
2023-04-22T00:05:54.999Z,77.66
2023-04-22T00:08:47.812Z,77.79
2023-04-22T00:11:38.135Z,77.78
2023-04-22T00:14:28.442Z,77.85
2023-04-22T00:17:18.718Z,77.89
2023-04-22T00:20:11.376Z,77.89
2023-04-22T00:23:01.594Z,78.05
2023-04-22T00:26:11.972Z,78.08
2023-04-22T00:29:05.971Z,78.20
2023-04-22T00:31:56.441Z,78.46
2023-04-22T00:34:47.306Z,78.53
2023-04-22T00:37:37.867Z,78.58
2023-04-22T00:40:30.984Z,78.61
2023-04-22T00:43:21.287Z,78.51
2023-04-22T00:46:11.847Z,78.53
2023-04-22T00:49:03.920Z,78.51
2023-04-22T00:51:54.141Z,78.53
2023-04-22T00:54:44.351Z,78.62
2023-04-22T00:57:36.122Z,78.59
2023-04-22T01:00:29.885Z,78.72
2023-04-22T01:03:24.151Z,78.70
2023-04-22T01:06:36.856Z,78.78
2023-04-22T01:09:32.399Z,78.81
2023-04-22T01:12:23.033Z,79.02
2023-04-22T01:15:14.335Z,79.08
2023-04-22T01:18:05.991Z,79.33
2023-04-22T01:20:56.283Z,79.51
2023-04-22T01:23:52.637Z,79.70
2023-04-22T01:26:50.840Z,79.70
2023-04-22T01:30:01.833Z,79.92
2023-04-22T01:33:03.878Z,79.94
2023-04-22T01:35:54.867Z,79.74
2023-04-22T01:38:45.213Z,79.85
2023-04-22T01:41:37.828Z,79.87
2023-04-22T01:44:31.650Z,79.95
2023-04-22T01:47:28.457Z,79.81
2023-04-22T01:50:27.968Z,79.95
2023-04-22T01:53:28.109Z,79.95
2023-04-22T01:56:18.962Z,80.10
2023-04-22T01:59:09.962Z,80.21
2023-04-22T02:02:01.061Z,80.30
2023-04-22T02:05:03.238Z,80.45
2023-04-22T02:07:58.597Z,80.45
2023-04-22T02:10:48.772Z,80.57
2023-04-22T02:13:42.336Z,80.55
2023-04-22T02:16:35.186Z,80.82
2023-04-22T02:19:25.657Z,80.71
2023-04-22T02:22:15.808Z,80.73
2023-04-22T02:25:06.803Z,80.60
2023-04-22T02:27:57.257Z,80.24
2023-04-22T02:30:50.941Z,80.29
2023-04-22T02:33:50.294Z,80.47
2023-04-22T02:36:52.128Z,80.29
2023-04-22T02:39:43.059Z,80.51
2023-04-22T02:42:33.300Z,80.52
2023-04-22T02:45:25.190Z,80.44
2023-04-22T02:48:26.474Z,80.47
2023-04-22T02:51:16.680Z,80.52
2023-04-22T02:54:07.176Z,80.43
2023-04-22T02:56:58.110Z,80.56
2023-04-22T02:59:48.532Z,80.69
2023-04-22T03:02:45.689Z,80.71
2023-04-22T03:05:38.341Z,80.56
2023-04-22T03:08:31.103Z,80.75
2023-04-22T03:11:31.455Z,80.95
2023-04-22T03:14:21.908Z,80.98
2023-04-22T03:17:16.538Z,80.90
2023-04-22T03:20:08.918Z,81.08
2023-04-22T03:23:01.838Z,81.06
2023-04-22T03:25:52.717Z,81.33
2023-04-22T03:28:46.084Z,80.87
2023-04-22T03:31:37.827Z,80.61
2023-04-22T03:34:28.280Z,80.53
2023-04-22T03:37:21.611Z,80.37
2023-04-22T03:40:13.764Z,80.14
2023-04-22T03:43:06.852Z,79.99
2023-04-22T03:46:00.648Z,80.10
2023-04-22T03:49:01.648Z,80.13
2023-04-22T03:52:02.866Z,80.25
2023-04-22T03:54:53.882Z,80.38
2023-04-22T03:57:49.576Z,80.36
2023-04-22T04:00:51.979Z,80.42
2023-04-22T04:03:49.938Z,80.49
2023-04-22T04:06:51.754Z,80.62
2023-04-22T04:09:47.673Z,80.62
2023-04-22T04:12:45.861Z,80.74
2023-04-22T04:15:39.356Z,80.82
2023-04-22T04:18:30.908Z,81.00
2023-04-22T04:21:21.842Z,81.21
2023-04-22T04:24:32.458Z,81.00
2023-04-22T04:27:45.740Z,81.12
2023-04-22T04:30:36.751Z,81.04
2023-04-22T04:33:28.770Z,80.98
2023-04-22T04:36:30.318Z,80.84
2023-04-22T04:39:29.319Z,80.83
2023-04-22T04:42:27.468Z,80.59
2023-04-22T04:45:40.645Z,80.72
2023-04-22T04:48:51.914Z,80.71
2023-04-22T04:51:42.277Z,80.68
2023-04-22T04:54:40.800Z,80.78
2023-04-22T04:57:40.071Z,81.09
2023-04-22T05:00:44.863Z,81.02
2023-04-22T05:03:36.140Z,81.13
2023-04-22T05:06:27.179Z,81.28
2023-04-22T05:09:29.106Z,81.58
2023-04-22T05:12:29.878Z,81.71
2023-04-22T05:15:31.354Z,81.81
2023-04-22T05:18:27.213Z,81.72
2023-04-22T05:21:18.766Z,81.84
2023-04-22T05:24:09.480Z,82.06
2023-04-22T05:27:00.161Z,82.28
2023-04-22T05:29:59.931Z,82.55
2023-04-22T05:32:52.808Z,82.61
2023-04-22T05:36:03.463Z,82.76
2023-04-22T05:39:14.261Z,82.57
2023-04-22T05:42:09.188Z,82.52
2023-04-22T05:45:03.147Z,82.72
2023-04-22T05:47:53.600Z,82.51
2023-04-22T05:51:04.323Z,82.20
2023-04-22T05:54:14.637Z,81.98
2023-04-22T05:57:10.738Z,81.96
2023-04-22T06:00:07.094Z,81.89
2023-04-22T06:03:03.307Z,81.71
2023-04-22T06:05:59.072Z,81.61
2023-04-22T06:09:10.262Z,81.56
2023-04-22T06:12:04.072Z,81.56
2023-04-22T06:14:54.523Z,81.53
2023-04-22T06:17:53.872Z,81.54
2023-04-22T06:20:47.284Z,81.64
2023-04-22T06:23:38.924Z,81.73
2023-04-22T06:26:32.623Z,81.43
2023-04-22T06:29:33.547Z,81.35
2023-04-22T06:32:26.156Z,81.36
2023-04-22T06:35:19.103Z,81.18
2023-04-22T06:38:09.840Z,81.28
2023-04-22T06:41:16.786Z,81.07
2023-04-22T06:44:19.446Z,80.65
2023-04-22T06:47:24.760Z,80.43
2023-04-22T06:50:22.167Z,80.19
2023-04-22T06:53:21.694Z,79.90
2023-04-22T06:56:25.033Z,79.54
2023-04-22T06:59:19.030Z,79.26
2023-04-22T07:02:15.633Z,78.92
2023-04-22T07:05:14.974Z,78.91
2023-04-22T07:08:08.678Z,78.52
2023-04-22T07:11:04.973Z,78.24
2023-04-22T07:14:03.053Z,78.08
2023-04-22T07:16:58.064Z,77.90
2023-04-22T07:19:51.052Z,77.75
2023-04-22T07:22:44.310Z,77.74
2023-04-22T07:25:34.750Z,77.75
2023-04-22T07:28:25.626Z,77.59
2023-04-22T07:31:18.612Z,77.01
2023-04-22T07:34:10.757Z,76.63
2023-04-22T07:37:05.284Z,76.21
2023-04-22T07:39:55.436Z,75.86
2023-04-22T07:42:45.830Z,75.15
2023-04-22T07:45:39.095Z,75.22
2023-04-22T07:48:29.487Z,74.73
2023-04-22T07:51:20.068Z,73.97
2023-04-22T07:54:10.479Z,73.42
2023-04-22T07:57:01.763Z,72.92
2023-04-22T07:59:53.114Z,71.87
2023-04-22T08:02:44.365Z,71.96
2023-04-22T08:05:34.829Z,72.13
2023-04-22T08:08:25.242Z,71.77
2023-04-22T08:11:15.805Z,71.99
2023-04-22T08:14:06.028Z,72.02
2023-04-22T08:16:56.408Z,72.19
2023-04-22T08:19:51.485Z,72.47
2023-04-22T08:22:43.141Z,72.59
2023-04-22T08:25:42.845Z,72.93
2023-04-22T08:28:33.192Z,73.25
2023-04-22T08:31:23.635Z,73.61
2023-04-22T08:34:25.001Z,73.85
2023-04-22T08:37:15.367Z,74.04
2023-04-22T08:40:07.096Z,74.10
2023-04-22T08:42:57.747Z,74.44
2023-04-22T08:45:48.181Z,75.29
2023-04-22T08:48:38.921Z,76.13
2023-04-22T08:51:29.233Z,76.57
2023-04-22T08:54:24.642Z,77.11
2023-04-22T08:57:16.591Z,77.32
2023-04-22T09:00:08.966Z,77.22
2023-04-22T09:03:04.710Z,78.25
2023-04-22T09:05:56.516Z,78.89
2023-04-22T09:08:59.161Z,79.33
2023-04-22T09:11:49.437Z,79.67
2023-04-22T09:14:52.530Z,79.92
2023-04-22T09:17:49.066Z,80.18
2023-04-22T09:20:45.592Z,80.59
2023-04-22T09:23:51.842Z,80.59
2023-04-22T09:26:43.552Z,80.97
2023-04-22T09:29:49.034Z,81.47
2023-04-22T09:32:41.189Z,81.74
2023-04-22T09:35:34.406Z,81.93
2023-04-22T09:38:35.987Z,82.28
2023-04-22T09:41:46.676Z,82.73
2023-04-22T09:44:52.804Z,82.85
2023-04-22T09:48:01.122Z,83.31
2023-04-22T09:50:52.692Z,83.60
2023-04-22T09:53:46.345Z,83.82
2023-04-22T09:56:50.867Z,83.81
2023-04-22T09:59:47.285Z,84.37
2023-04-22T10:02:37.931Z,84.13
2023-04-22T10:05:48.686Z,84.28
2023-04-22T10:08:39.701Z,84.53
2023-04-22T10:11:30.551Z,84.57
2023-04-22T10:14:21.617Z,84.30
2023-04-22T10:17:13.949Z,83.54
2023-04-22T10:20:13.865Z,84.31
2023-04-22T10:23:22.125Z,85.17
2023-04-22T10:26:15.267Z,85.52
2023-04-22T10:29:06.977Z,84.66
2023-04-22T10:31:58.710Z,84.37
2023-04-22T10:35:08.301Z,84.66
2023-04-22T10:37:58.654Z,85.62
2023-04-22T10:41:01.398Z,86.18
2023-04-22T10:43:58.669Z,85.41
2023-04-22T10:47:10.566Z,84.56
2023-04-22T10:50:16.315Z,84.88
2023-04-22T10:53:20.026Z,85.73
2023-04-22T10:56:26.968Z,85.80
2023-04-22T10:59:19.778Z,85.09
2023-04-22T11:02:18.094Z,85.41
2023-04-22T11:05:24.663Z,85.65
2023-04-22T11:08:23.621Z,85.68
2023-04-22T11:11:27.060Z,86.08
2023-04-22T11:14:17.739Z,86.56
2023-04-22T11:17:28.818Z,87.08
2023-04-22T11:20:30.734Z,87.82
2023-04-22T11:23:33.804Z,87.73
2023-04-22T11:26:37.888Z,87.53
2023-04-22T11:29:28.317Z,87.89
2023-04-22T11:32:22.462Z,88.02
2023-04-22T11:35:33.995Z,88.46
2023-04-22T11:38:35.979Z,89.06
2023-04-22T11:41:41.819Z,88.79
2023-04-22T11:44:35.035Z,88.79
2023-04-22T11:47:32.689Z,88.46
2023-04-22T11:50:26.876Z,88.01
2023-04-22T11:53:24.291Z,87.86
2023-04-22T11:56:17.209Z,87.80
2023-04-22T11:59:10.885Z,87.82
2023-04-22T12:02:15.398Z,88.14
2023-04-22T12:05:37.587Z,87.97
2023-04-22T12:08:39.985Z,87.93
2023-04-22T12:11:33.501Z,87.99
2023-04-22T12:14:32.968Z,88.41
2023-04-22T12:17:32.966Z,88.67
2023-04-22T12:20:33.146Z,88.38
2023-04-22T12:23:23.620Z,88.04
2023-04-22T12:26:17.958Z,88.15
2023-04-22T12:29:33.042Z,88.63
2023-04-22T12:32:27.622Z,88.31
2023-04-22T12:35:28.874Z,88.59
2023-04-22T12:38:23.901Z,88.18
2023-04-22T12:41:18.526Z,87.87
2023-04-22T12:44:14.133Z,87.13
2023-04-22T12:47:07.467Z,87.32
2023-04-22T12:50:06.385Z,87.49
2023-04-22T12:52:56.680Z,87.18
2023-04-22T12:55:47.002Z,86.89
2023-04-22T12:58:37.397Z,86.49
2023-04-22T13:01:35.245Z,85.75
2023-04-22T13:04:26.268Z,85.13
2023-04-22T13:07:19.600Z,85.09
2023-04-22T13:10:11.560Z,84.97
2023-04-22T13:13:18.345Z,84.75
2023-04-22T13:16:13.005Z,84.77
2023-04-22T13:19:03.653Z,84.92
2023-04-22T13:21:56.793Z,85.81
2023-04-22T13:24:47.162Z,85.77
2023-04-22T13:27:38.093Z,85.85
2023-04-22T13:30:28.453Z,85.24
2023-04-22T13:33:24.317Z,84.84
2023-04-22T13:36:34.969Z,85.27
2023-04-22T13:39:25.624Z,85.75
2023-04-22T13:42:16.135Z,85.44
2023-04-22T13:45:26.808Z,85.02
2023-04-22T13:48:20.299Z,85.13
2023-04-22T13:51:24.446Z,85.50
2023-04-22T13:54:14.907Z,85.71
2023-04-22T13:57:10.131Z,85.74
2023-04-22T14:00:15.067Z,85.43
2023-04-22T14:03:25.594Z,85.65
2023-04-22T14:06:16.088Z,85.48
2023-04-22T14:09:26.502Z,85.38
2023-04-22T14:12:16.773Z,85.61
2023-04-22T14:15:11.159Z,85.20
2023-04-22T14:18:01.585Z,85.12
2023-04-22T14:20:56.207Z,85.59
2023-04-22T14:23:49.700Z,85.34
2023-04-22T14:26:39.889Z,84.40
2023-04-22T14:29:31.096Z,83.78
2023-04-22T14:32:21.954Z,83.46
2023-04-22T14:35:12.642Z,83.01
2023-04-22T14:38:08.745Z,82.86
2023-04-22T14:41:02.150Z,83.08
2023-04-22T14:43:54.626Z,83.43
2023-04-22T14:46:47.255Z,83.42
2023-04-22T14:49:40.454Z,83.11
2023-04-22T14:52:34.581Z,83.40
2023-04-22T14:55:25.040Z,83.75
2023-04-22T14:58:18.088Z,83.59
2023-04-22T15:01:08.565Z,83.80
2023-04-22T15:03:59.304Z,84.08
2023-04-22T15:06:51.857Z,84.52
2023-04-22T15:09:42.557Z,84.44
2023-04-22T15:12:37.616Z,84.32
2023-04-22T15:15:31.202Z,84.52
2023-04-22T15:18:22.723Z,84.51
2023-04-22T15:21:13.031Z,84.37
2023-04-22T15:24:03.958Z,84.38
2023-04-22T15:26:58.668Z,84.49
2023-04-22T15:29:55.229Z,84.86
2023-04-22T15:32:55.212Z,85.38
2023-04-22T15:35:50.104Z,85.73
2023-04-22T15:38:45.522Z,86.11
2023-04-22T15:41:35.847Z,87.00
2023-04-22T15:44:26.411Z,87.00
2023-04-22T15:47:19.303Z,85.83
2023-04-22T15:50:13.178Z,85.76
2023-04-22T15:53:06.722Z,86.05
2023-04-22T15:55:56.981Z,85.49
2023-04-22T15:59:00.696Z,84.38
2023-04-22T16:01:51.895Z,84.27
2023-04-22T16:04:45.714Z,84.27
2023-04-22T16:07:36.504Z,84.27
2023-04-22T16:10:35.896Z,84.43
2023-04-22T16:13:28.818Z,83.62
2023-04-22T16:16:28.155Z,83.82
2023-04-22T16:19:21.840Z,83.93
2023-04-22T16:22:12.005Z,83.24
2023-04-22T16:25:02.597Z,83.30
2023-04-22T16:27:58.533Z,83.46
2023-04-22T16:30:51.833Z,83.18
2023-04-22T16:33:42.893Z,83.12
2023-04-22T16:36:35.298Z,83.76
2023-04-22T16:39:26.002Z,83.21
2023-04-22T16:42:16.240Z,83.27
2023-04-22T16:45:08.048Z,83.78
2023-04-22T16:47:58.321Z,83.72
2023-04-22T16:50:52.947Z,83.52
2023-04-22T16:53:43.230Z,83.19
2023-04-22T16:56:33.533Z,83.41
2023-04-22T16:59:23.905Z,83.78
2023-04-22T17:02:15.063Z,83.97
2023-04-22T17:05:06.609Z,83.93
2023-04-22T17:07:57.187Z,83.94
2023-04-22T17:10:48.091Z,83.65
2023-04-22T17:13:41.511Z,83.68
2023-04-22T17:16:32.467Z,83.86
2023-04-22T17:19:43.948Z,84.39
2023-04-22T17:22:34.484Z,84.70
2023-04-22T17:25:24.889Z,84.71
2023-04-22T17:28:15.140Z,85.08
2023-04-22T17:31:05.367Z,85.44
2023-04-22T17:33:55.729Z,85.87
2023-04-22T17:36:46.221Z,86.25
2023-04-22T17:39:40.469Z,86.80
2023-04-22T17:42:46.128Z,87.06
2023-04-22T17:45:36.866Z,87.81
2023-04-22T17:48:27.286Z,88.27
2023-04-22T17:51:17.602Z,88.76
2023-04-22T17:54:07.931Z,88.80
2023-04-22T17:56:58.138Z,89.07
2023-04-22T17:59:48.453Z,89.52
2023-04-22T18:02:42.207Z,88.97
2023-04-22T18:05:44.738Z,88.67
2023-04-22T18:08:35.123Z,88.18
2023-04-22T18:11:45.917Z,88.00
2023-04-22T18:14:36.184Z,88.11
2023-04-22T18:17:26.661Z,87.77
2023-04-22T18:20:20.022Z,88.05
2023-04-22T18:23:10.548Z,88.14
2023-04-22T18:26:21.047Z,88.21
2023-04-22T18:29:24.718Z,88.10
2023-04-22T18:32:22.371Z,88.24
2023-04-22T18:35:25.446Z,88.06
2023-04-22T18:38:35.922Z,88.00
2023-04-22T18:41:46.821Z,88.33
2023-04-22T18:44:56.115Z,88.48
2023-04-22T18:48:07.261Z,88.47
2023-04-22T18:51:17.653Z,88.63
2023-04-22T18:54:30.680Z,88.73
2023-04-22T18:57:41.643Z,88.99
2023-04-22T19:00:53.064Z,89.55
2023-04-22T19:03:57.447Z,90.15
2023-04-22T19:06:53.770Z,90.43
2023-04-22T19:09:44.017Z,90.53
2023-04-22T19:12:34.537Z,90.40
2023-04-22T19:15:25.000Z,90.50
2023-04-22T19:18:15.296Z,91.09
2023-04-22T19:21:07.132Z,91.30
2023-04-22T19:23:59.759Z,91.48
2023-04-22T19:27:01.968Z,91.34
2023-04-22T19:30:05.718Z,90.76
2023-04-22T19:32:58.977Z,90.40
2023-04-22T19:36:08.379Z,90.78
2023-04-22T19:38:58.708Z,90.45
2023-04-22T19:42:00.852Z,90.64
2023-04-22T19:45:11.945Z,90.98
2023-04-22T19:48:14.769Z,90.99
2023-04-22T19:51:11.512Z,91.09
2023-04-22T19:54:02.558Z,91.42
2023-04-22T19:56:53.223Z,91.57
2023-04-22T19:59:44.002Z,91.28
2023-04-22T20:02:34.938Z,91.63
2023-04-22T20:05:26.399Z,91.99
2023-04-22T20:08:19.235Z,92.67
2023-04-22T20:11:19.736Z,93.41
2023-04-22T20:14:10.460Z,93.25
2023-04-22T20:17:04.164Z,93.69
2023-04-22T20:20:15.667Z,94.03
2023-04-22T20:23:12.920Z,94.34
2023-04-22T20:26:05.874Z,94.51
2023-04-22T20:28:56.375Z,94.40
2023-04-22T20:31:47.282Z,94.08
2023-04-22T20:34:58.526Z,93.79
2023-04-22T20:37:50.973Z,93.51
2023-04-22T20:40:48.963Z,92.98
2023-04-22T20:43:50.217Z,92.69
2023-04-22T20:46:53.363Z,92.68
2023-04-22T20:49:44.040Z,92.80
2023-04-22T20:52:46.120Z,92.78
2023-04-22T20:55:56.665Z,92.81
2023-04-22T20:58:57.177Z,92.80
2023-04-22T21:01:57.508Z,92.75
2023-04-22T21:04:48.260Z,92.80
2023-04-22T21:07:40.257Z,92.78
2023-04-22T21:10:31.839Z,93.27
2023-04-22T21:13:24.592Z,93.46
2023-04-22T21:16:37.682Z,93.60
2023-04-22T21:19:50.024Z,94.32
2023-04-22T21:22:44.318Z,94.76
2023-04-22T21:25:55.688Z,94.99
2023-04-22T21:28:59.539Z,95.23
2023-04-22T21:32:10.335Z,95.32
2023-04-22T21:35:00.835Z,94.82
2023-04-22T21:38:05.027Z,94.51
2023-04-22T21:40:58.567Z,94.03
2023-04-22T21:43:48.862Z,93.64
2023-04-22T21:46:48.879Z,93.56
2023-04-22T21:49:39.237Z,93.56
2023-04-22T21:52:34.854Z,93.17
2023-04-22T21:55:25.378Z,92.62
2023-04-22T21:58:26.753Z,92.59
2023-04-22T22:01:17.011Z,92.47
2023-04-22T22:04:07.748Z,92.28
2023-04-22T22:07:18.384Z,92.00
2023-04-22T22:10:10.234Z,91.74
2023-04-22T22:13:03.732Z,91.98
2023-04-22T22:15:59.683Z,92.09
2023-04-22T22:18:52.886Z,92.25
2023-04-22T22:21:57.128Z,92.23
2023-04-22T22:24:49.623Z,92.26
2023-04-22T22:28:04.822Z,92.32
2023-04-22T22:31:02.622Z,92.25
2023-04-22T22:33:53.193Z,92.75
2023-04-22T22:37:04.352Z,93.12
2023-04-22T22:39:54.947Z,93.52
2023-04-22T22:42:48.818Z,93.69
2023-04-22T22:45:44.917Z,93.61
2023-04-22T22:48:41.087Z,94.18
2023-04-22T22:51:34.391Z,95.17
2023-04-22T22:54:28.254Z,95.13
2023-04-22T22:57:26.336Z,95.83
2023-04-22T23:00:17.841Z,96.00
2023-04-22T23:03:08.201Z,95.69
2023-04-22T23:06:09.258Z,94.85
2023-04-22T23:09:11.370Z,94.60
2023-04-22T23:12:10.799Z,94.26
2023-04-22T23:15:11.038Z,94.05
2023-04-22T23:18:09.255Z,93.92
2023-04-22T23:21:01.866Z,93.99
2023-04-22T23:24:03.213Z,93.77
2023-04-22T23:27:14.428Z,93.66
2023-04-22T23:30:26.093Z,93.82
2023-04-22T23:33:29.242Z,94.00
2023-04-22T23:36:21.249Z,94.06
2023-04-22T23:39:14.118Z,93.97
2023-04-22T23:42:04.611Z,93.88
2023-04-22T23:45:05.682Z,93.95
2023-04-22T23:47:56.036Z,93.73
2023-04-22T23:50:54.167Z,94.11
2023-04-22T23:54:04.563Z,94.61
2023-04-22T23:56:58.148Z,95.07
